sensor_id;sensor_type;location;lat;lon;timestamp;P1;durP1;ratioP1;P2;durP2;ratioP2
16393;SDS011;8306;51.128;4.476;2023-03-02T00:00:44;10.30;;;6.10;;
16393;SDS011;8306;51.128;4.476;2023-03-02T00:03:11;8.30;;;7.60;;
16393;SDS011;8306;51.128;4.476;2023-03-02T00:05:37;7.67;;;7.00;;
16393;SDS011;8306;51.128;4.476;2023-03-02T00:08:04;6.90;;;6.30;;
16393;SDS011;8306;51.128;4.476;2023-03-02T00:10:30;7.53;;;6.87;;
16393;SDS011;8306;51.128;4.476;2023-03-02T00:12:57;8.03;;;6.60;;
16393;SDS011;8306;51.128;4.476;2023-03-02T00:15:23;6.60;;;6.00;;
16393;SDS011;8306;51.128;4.476;2023-03-02T00:17:50;5.93;;;5.43;;
16393;SDS011;8306;51.128;4.476;2023-03-02T00:20:16;6.23;;;5.73;;
16393;SDS011;8306;51.128;4.476;2023-03-02T00:22:43;7.03;;;6.43;;
16393;SDS011;8306;51.128;4.476;2023-03-02T00:25:09;8.20;;;6.10;;
16393;SDS011;8306;51.128;4.476;2023-03-02T00:27:35;6.07;;;5.47;;
16393;SDS011;8306;51.128;4.476;2023-03-02T00:30:02;7.00;;;6.40;;
16393;SDS011;8306;51.128;4.476;2023-03-02T00:32:28;6.33;;;5.83;;
16393;SDS011;8306;51.128;4.476;2023-03-02T00:34:55;6.70;;;6.10;;
16393;SDS011;8306;51.128;4.476;2023-03-02T00:37:21;6.50;;;6.00;;
16393;SDS011;8306;51.128;4.476;2023-03-02T00:39:51;7.17;;;6.33;;
16393;SDS011;8306;51.128;4.476;2023-03-02T00:42:18;7.23;;;6.53;;
16393;SDS011;8306;51.128;4.476;2023-03-02T00:44:44;6.50;;;5.60;;
16393;SDS011;8306;51.128;4.476;2023-03-02T00:47:10;7.13;;;6.50;;
16393;SDS011;8306;51.128;4.476;2023-03-02T00:49:37;6.70;;;6.10;;
16393;SDS011;8306;51.128;4.476;2023-03-02T00:52:03;6.43;;;5.83;;
16393;SDS011;8306;51.128;4.476;2023-03-02T00:54:30;6.23;;;5.73;;
16393;SDS011;8306;51.128;4.476;2023-03-02T00:56:56;8.03;;;6.03;;
16393;SDS011;8306;51.128;4.476;2023-03-02T00:59:23;6.07;;;5.50;;
16393;SDS011;8306;51.128;4.476;2023-03-02T01:01:56;5.70;;;5.20;;
16393;SDS011;8306;51.128;4.476;2023-03-02T01:04:27;5.70;;;5.20;;
16393;SDS011;8306;51.128;4.476;2023-03-02T01:06:59;6.40;;;5.87;;
16393;SDS011;8306;51.128;4.476;2023-03-02T01:09:22;6.57;;;5.97;;
16393;SDS011;8306;51.128;4.476;2023-03-02T01:11:49;6.07;;;5.47;;
16393;SDS011;8306;51.128;4.476;2023-03-02T01:14:15;6.80;;;6.10;;
16393;SDS011;8306;51.128;4.476;2023-03-02T01:16:42;6.43;;;5.83;;
16393;SDS011;8306;51.128;4.476;2023-03-02T01:19:08;6.53;;;5.97;;
16393;SDS011;8306;51.128;4.476;2023-03-02T01:21:35;6.00;;;5.50;;
16393;SDS011;8306;51.128;4.476;2023-03-02T01:24:01;5.83;;;5.33;;
16393;SDS011;8306;51.128;4.476;2023-03-02T01:26:28;6.83;;;6.10;;
16393;SDS011;8306;51.128;4.476;2023-03-02T01:28:54;6.53;;;5.93;;
16393;SDS011;8306;51.128;4.476;2023-03-02T01:31:21;6.30;;;5.70;;
16393;SDS011;8306;51.128;4.476;2023-03-02T01:33:47;6.13;;;5.63;;
16393;SDS011;8306;51.128;4.476;2023-03-02T01:36:14;7.50;;;6.90;;
16393;SDS011;8306;51.128;4.476;2023-03-02T01:38:40;6.40;;;5.90;;
16393;SDS011;8306;51.128;4.476;2023-03-02T01:41:07;7.97;;;7.27;;
16393;SDS011;8306;51.128;4.476;2023-03-02T01:43:33;6.87;;;6.27;;
16393;SDS011;8306;51.128;4.476;2023-03-02T01:48:28;7.10;;;6.50;;
16393;SDS011;8306;51.128;4.476;2023-03-02T01:50:52;7.37;;;6.70;;
16393;SDS011;8306;51.128;4.476;2023-03-02T01:53:19;6.63;;;6.03;;
16393;SDS011;8306;51.128;4.476;2023-03-02T01:55:45;6.60;;;6.00;;
16393;SDS011;8306;51.128;4.476;2023-03-02T01:58:12;6.27;;;5.77;;
16393;SDS011;8306;51.128;4.476;2023-03-02T02:00:39;6.83;;;6.20;;
16393;SDS011;8306;51.128;4.476;2023-03-02T02:03:08;6.97;;;6.27;;
16393;SDS011;8306;51.128;4.476;2023-03-02T02:05:38;6.27;;;5.70;;
16393;SDS011;8306;51.128;4.476;2023-03-02T02:08:06;6.70;;;6.10;;
16393;SDS011;8306;51.128;4.476;2023-03-02T02:10:33;6.53;;;5.93;;
16393;SDS011;8306;51.128;4.476;2023-03-02T02:13:00;6.77;;;6.27;;
16393;SDS011;8306;51.128;4.476;2023-03-02T02:15:26;6.93;;;6.33;;
16393;SDS011;8306;51.128;4.476;2023-03-02T02:17:53;6.50;;;5.90;;
16393;SDS011;8306;51.128;4.476;2023-03-02T02:20:21;8.20;;;6.50;;
16393;SDS011;8306;51.128;4.476;2023-03-02T02:23:05;9.03;;;6.13;;
16393;SDS011;8306;51.128;4.476;2023-03-02T02:28:02;6.70;;;6.20;;
16393;SDS011;8306;51.128;4.476;2023-03-02T02:30:28;7.83;;;6.20;;
16393;SDS011;8306;51.128;4.476;2023-03-02T02:32:54;6.57;;;5.80;;
16393;SDS011;8306;51.128;4.476;2023-03-02T02:35:22;6.53;;;5.93;;
16393;SDS011;8306;51.128;4.476;2023-03-02T02:37:52;6.20;;;5.60;;
16393;SDS011;8306;51.128;4.476;2023-03-02T02:43:09;6.47;;;5.87;;
16393;SDS011;8306;51.128;4.476;2023-03-02T02:45:34;6.23;;;5.73;;
16393;SDS011;8306;51.128;4.476;2023-03-02T02:48:00;6.70;;;6.00;;
16393;SDS011;8306;51.128;4.476;2023-03-02T02:50:31;6.27;;;5.77;;
16393;SDS011;8306;51.128;4.476;2023-03-02T02:52:58;6.13;;;5.53;;
16393;SDS011;8306;51.128;4.476;2023-03-02T02:55:22;6.63;;;6.13;;
16393;SDS011;8306;51.128;4.476;2023-03-02T02:57:52;6.33;;;5.73;;
16393;SDS011;8306;51.128;4.476;2023-03-02T03:00:19;6.30;;;5.70;;
16393;SDS011;8306;51.128;4.476;2023-03-02T03:02:45;6.53;;;5.93;;
16393;SDS011;8306;51.128;4.476;2023-03-02T03:05:14;5.03;;;4.63;;
16393;SDS011;8306;51.128;4.476;2023-03-02T03:07:41;7.07;;;6.37;;
16393;SDS011;8306;51.128;4.476;2023-03-02T03:10:25;5.93;;;5.37;;
16393;SDS011;8306;51.128;4.476;2023-03-02T03:12:49;6.20;;;5.70;;
16393;SDS011;8306;51.128;4.476;2023-03-02T03:15:15;6.43;;;5.20;;
16393;SDS011;8306;51.128;4.476;2023-03-02T03:17:52;6.57;;;5.97;;
16393;SDS011;8306;51.128;4.476;2023-03-02T03:20:20;9.10;;;5.90;;
16393;SDS011;8306;51.128;4.476;2023-03-02T03:22:46;6.63;;;6.03;;
16393;SDS011;8306;51.128;4.476;2023-03-02T03:25:13;7.23;;;6.60;;
16393;SDS011;8306;51.128;4.476;2023-03-02T03:27:40;6.40;;;5.80;;
16393;SDS011;8306;51.128;4.476;2023-03-02T03:30:06;6.10;;;5.50;;
16393;SDS011;8306;51.128;4.476;2023-03-02T03:32:33;6.60;;;5.90;;
16393;SDS011;8306;51.128;4.476;2023-03-02T03:34:59;6.17;;;5.67;;
16393;SDS011;8306;51.128;4.476;2023-03-02T03:37:25;6.33;;;5.73;;
16393;SDS011;8306;51.128;4.476;2023-03-02T03:39:52;7.27;;;6.23;;
16393;SDS011;8306;51.128;4.476;2023-03-02T03:42:18;6.60;;;6.00;;
16393;SDS011;8306;51.128;4.476;2023-03-02T03:44:45;6.63;;;6.03;;
16393;SDS011;8306;51.128;4.476;2023-03-02T03:47:11;8.30;;;6.70;;
16393;SDS011;8306;51.128;4.476;2023-03-02T03:49:37;6.77;;;6.17;;
16393;SDS011;8306;51.128;4.476;2023-03-02T03:52:04;6.73;;;6.13;;
16393;SDS011;8306;51.128;4.476;2023-03-02T03:54:30;7.40;;;6.70;;
16393;SDS011;8306;51.128;4.476;2023-03-02T03:56:57;7.93;;;5.97;;
16393;SDS011;8306;51.128;4.476;2023-03-02T03:59:24;6.83;;;6.13;;
16393;SDS011;8306;51.128;4.476;2023-03-02T04:01:51;5.90;;;5.40;;
16393;SDS011;8306;51.128;4.476;2023-03-02T04:04:18;6.60;;;6.10;;
16393;SDS011;8306;51.128;4.476;2023-03-02T04:06:43;6.67;;;6.17;;
16393;SDS011;8306;51.128;4.476;2023-03-02T04:09:09;6.33;;;5.73;;
16393;SDS011;8306;51.128;4.476;2023-03-02T04:11:37;6.73;;;6.13;;
16393;SDS011;8306;51.128;4.476;2023-03-02T04:14:03;7.10;;;6.33;;
16393;SDS011;8306;51.128;4.476;2023-03-02T04:16:29;6.60;;;6.07;;
16393;SDS011;8306;51.128;4.476;2023-03-02T04:18:55;6.63;;;6.07;;
16393;SDS011;8306;51.128;4.476;2023-03-02T04:21:22;6.10;;;5.60;;
16393;SDS011;8306;51.128;4.476;2023-03-02T04:23:48;6.80;;;6.20;;
16393;SDS011;8306;51.128;4.476;2023-03-02T04:26:15;6.60;;;6.03;;
16393;SDS011;8306;51.128;4.476;2023-03-02T04:28:41;6.80;;;6.20;;
16393;SDS011;8306;51.128;4.476;2023-03-02T04:31:08;7.37;;;6.77;;
16393;SDS011;8306;51.128;4.476;2023-03-02T04:33:34;6.27;;;5.77;;
16393;SDS011;8306;51.128;4.476;2023-03-02T04:36:01;6.83;;;6.23;;
16393;SDS011;8306;51.128;4.476;2023-03-02T04:38:27;6.57;;;6.03;;
16393;SDS011;8306;51.128;4.476;2023-03-02T04:40:56;7.17;;;6.57;;
16393;SDS011;8306;51.128;4.476;2023-03-02T04:43:23;7.23;;;6.73;;
16393;SDS011;8306;51.128;4.476;2023-03-02T04:45:49;7.50;;;6.90;;
16393;SDS011;8306;51.128;4.476;2023-03-02T04:48:16;7.27;;;6.67;;
16393;SDS011;8306;51.128;4.476;2023-03-02T04:50:42;8.23;;;7.53;;
16393;SDS011;8306;51.128;4.476;2023-03-02T04:53:09;8.10;;;7.40;;
16393;SDS011;8306;51.128;4.476;2023-03-02T04:55:35;7.80;;;7.00;;
16393;SDS011;8306;51.128;4.476;2023-03-02T04:58:02;10.03;;;7.60;;
16393;SDS011;8306;51.128;4.476;2023-03-02T05:00:28;8.90;;;8.00;;
16393;SDS011;8306;51.128;4.476;2023-03-02T05:02:55;8.50;;;7.60;;
16393;SDS011;8306;51.128;4.476;2023-03-02T05:05:22;9.30;;;8.60;;
16393;SDS011;8306;51.128;4.476;2023-03-02T05:07:48;9.13;;;8.33;;
16393;SDS011;8306;51.128;4.476;2023-03-02T05:10:15;10.50;;;9.50;;
16393;SDS011;8306;51.128;4.476;2023-03-02T05:12:41;10.23;;;9.33;;
16393;SDS011;8306;51.128;4.476;2023-03-02T05:15:23;10.30;;;9.30;;
16393;SDS011;8306;51.128;4.476;2023-03-02T05:17:51;11.63;;;10.43;;
16393;SDS011;8306;51.128;4.476;2023-03-02T05:20:18;10.93;;;10.03;;
16393;SDS011;8306;51.128;4.476;2023-03-02T05:22:44;11.67;;;10.67;;
16393;SDS011;8306;51.128;4.476;2023-03-02T05:25:11;14.23;;;12.93;;
16393;SDS011;8306;51.128;4.476;2023-03-02T05:27:37;13.67;;;12.23;;
16393;SDS011;8306;51.128;4.476;2023-03-02T05:30:04;14.23;;;12.97;;
16393;SDS011;8306;51.128;4.476;2023-03-02T05:32:30;14.00;;;12.60;;
16393;SDS011;8306;51.128;4.476;2023-03-02T05:34:57;14.03;;;12.73;;
16393;SDS011;8306;51.128;4.476;2023-03-02T05:37:23;16.00;;;14.37;;
16393;SDS011;8306;51.128;4.476;2023-03-02T05:39:50;15.27;;;13.77;;
16393;SDS011;8306;51.128;4.476;2023-03-02T05:42:16;15.53;;;13.93;;
16393;SDS011;8306;51.128;4.476;2023-03-02T05:44:43;17.23;;;15.47;;
16393;SDS011;8306;51.128;4.476;2023-03-02T05:47:09;16.93;;;15.27;;
16393;SDS011;8306;51.128;4.476;2023-03-02T05:49:36;16.10;;;14.17;;
16393;SDS011;8306;51.128;4.476;2023-03-02T05:52:02;15.17;;;13.73;;
16393;SDS011;8306;51.128;4.476;2023-03-02T05:54:29;18.27;;;16.47;;
16393;SDS011;8306;51.128;4.476;2023-03-02T05:56:55;18.87;;;16.80;;
16393;SDS011;8306;51.128;4.476;2023-03-02T05:59:22;17.13;;;15.33;;
16393;SDS011;8306;51.128;4.476;2023-03-02T06:01:48;18.97;;;15.67;;
16393;SDS011;8306;51.128;4.476;2023-03-02T06:04:15;17.40;;;15.60;;
16393;SDS011;8306;51.128;4.476;2023-03-02T06:06:41;26.47;;;17.23;;
16393;SDS011;8306;51.128;4.476;2023-03-02T06:09:08;18.83;;;16.77;;
16393;SDS011;8306;51.128;4.476;2023-03-02T06:11:34;18.40;;;15.47;;
16393;SDS011;8306;51.128;4.476;2023-03-02T06:14:00;19.47;;;15.67;;
16393;SDS011;8306;51.128;4.476;2023-03-02T06:16:27;17.97;;;15.13;;
16393;SDS011;8306;51.128;4.476;2023-03-02T06:18:53;20.00;;;17.83;;
16393;SDS011;8306;51.128;4.476;2023-03-02T06:21:20;22.27;;;19.03;;
16393;SDS011;8306;51.128;4.476;2023-03-02T06:23:46;21.43;;;18.23;;
16393;SDS011;8306;51.128;4.476;2023-03-02T06:26:13;23.67;;;17.43;;
16393;SDS011;8306;51.128;4.476;2023-03-02T06:28:39;19.97;;;17.23;;
16393;SDS011;8306;51.128;4.476;2023-03-02T06:31:06;22.63;;;18.07;;
16393;SDS011;8306;51.128;4.476;2023-03-02T06:33:32;21.47;;;17.47;;
16393;SDS011;8306;51.128;4.476;2023-03-02T06:35:59;25.73;;;19.83;;
16393;SDS011;8306;51.128;4.476;2023-03-02T06:38:25;28.23;;;20.20;;
16393;SDS011;8306;51.128;4.476;2023-03-02T06:40:52;21.07;;;18.77;;
16393;SDS011;8306;51.128;4.476;2023-03-02T06:43:18;25.90;;;20.03;;
16393;SDS011;8306;51.128;4.476;2023-03-02T06:45:45;21.50;;;19.30;;
16393;SDS011;8306;51.128;4.476;2023-03-02T06:48:11;23.87;;;18.50;;
16393;SDS011;8306;51.128;4.476;2023-03-02T06:50:38;21.93;;;17.60;;
16393;SDS011;8306;51.128;4.476;2023-03-02T06:53:04;21.73;;;18.97;;
16393;SDS011;8306;51.128;4.476;2023-03-02T06:55:31;22.07;;;19.13;;
16393;SDS011;8306;51.128;4.476;2023-03-02T06:57:57;23.77;;;19.17;;
16393;SDS011;8306;51.128;4.476;2023-03-02T07:00:24;20.30;;;18.07;;
16393;SDS011;8306;51.128;4.476;2023-03-02T07:02:50;23.93;;;19.90;;
16393;SDS011;8306;51.128;4.476;2023-03-02T07:05:17;21.83;;;18.57;;
16393;SDS011;8306;51.128;4.476;2023-03-02T07:07:43;25.57;;;19.10;;
16393;SDS011;8306;51.128;4.476;2023-03-02T07:10:10;20.27;;;18.23;;
16393;SDS011;8306;51.128;4.476;2023-03-02T07:12:36;19.03;;;17.20;;
16393;SDS011;8306;51.128;4.476;2023-03-02T07:15:03;19.13;;;17.33;;
16393;SDS011;8306;51.128;4.476;2023-03-02T07:17:30;20.30;;;18.30;;
16393;SDS011;8306;51.128;4.476;2023-03-02T07:19:56;19.63;;;17.77;;
16393;SDS011;8306;51.128;4.476;2023-03-02T07:22:23;20.73;;;18.93;;
16393;SDS011;8306;51.128;4.476;2023-03-02T07:24:49;20.90;;;19.03;;
16393;SDS011;8306;51.128;4.476;2023-03-02T07:27:18;19.97;;;17.83;;
16393;SDS011;8306;51.128;4.476;2023-03-02T07:29:45;19.60;;;17.73;;
16393;SDS011;8306;51.128;4.476;2023-03-02T07:32:11;20.17;;;18.07;;
16393;SDS011;8306;51.128;4.476;2023-03-02T07:34:38;21.70;;;19.60;;
16393;SDS011;8306;51.128;4.476;2023-03-02T07:37:04;21.20;;;19.23;;
16393;SDS011;8306;51.128;4.476;2023-03-02T07:39:31;20.37;;;18.37;;
16393;SDS011;8306;51.128;4.476;2023-03-02T07:41:57;21.37;;;19.57;;
16393;SDS011;8306;51.128;4.476;2023-03-02T07:44:24;20.53;;;18.87;;
16393;SDS011;8306;51.128;4.476;2023-03-02T07:46:50;20.73;;;18.87;;
16393;SDS011;8306;51.128;4.476;2023-03-02T07:49:17;19.07;;;17.47;;
16393;SDS011;8306;51.128;4.476;2023-03-02T07:51:43;20.30;;;18.27;;
16393;SDS011;8306;51.128;4.476;2023-03-02T07:54:10;19.57;;;17.87;;
16393;SDS011;8306;51.128;4.476;2023-03-02T07:56:36;20.87;;;19.17;;
16393;SDS011;8306;51.128;4.476;2023-03-02T07:59:03;21.87;;;19.80;;
16393;SDS011;8306;51.128;4.476;2023-03-02T08:01:29;21.17;;;19.47;;
16393;SDS011;8306;51.128;4.476;2023-03-02T08:03:55;20.57;;;18.60;;
16393;SDS011;8306;51.128;4.476;2023-03-02T08:06:22;21.60;;;19.83;;
16393;SDS011;8306;51.128;4.476;2023-03-02T08:08:48;22.77;;;20.57;;
16393;SDS011;8306;51.128;4.476;2023-03-02T08:11:16;21.83;;;19.90;;
16393;SDS011;8306;51.128;4.476;2023-03-02T08:13:42;23.07;;;20.83;;
16393;SDS011;8306;51.128;4.476;2023-03-02T08:16:09;24.10;;;21.67;;
16393;SDS011;8306;51.128;4.476;2023-03-02T08:18:34;21.27;;;19.33;;
16393;SDS011;8306;51.128;4.476;2023-03-02T08:21:01;22.47;;;20.57;;
16393;SDS011;8306;51.128;4.476;2023-03-02T08:23:27;22.40;;;20.17;;
16393;SDS011;8306;51.128;4.476;2023-03-02T08:25:54;23.70;;;21.50;;
16393;SDS011;8306;51.128;4.476;2023-03-02T08:28:21;22.70;;;20.57;;
16393;SDS011;8306;51.128;4.476;2023-03-02T08:30:56;21.70;;;19.80;;
16393;SDS011;8306;51.128;4.476;2023-03-02T08:33:22;23.47;;;21.00;;
16393;SDS011;8306;51.128;4.476;2023-03-02T08:35:58;22.27;;;20.23;;
16393;SDS011;8306;51.128;4.476;2023-03-02T08:38:24;21.70;;;19.80;;
16393;SDS011;8306;51.128;4.476;2023-03-02T08:40:50;22.87;;;20.67;;
16393;SDS011;8306;51.128;4.476;2023-03-02T08:43:18;23.57;;;21.13;;
16393;SDS011;8306;51.128;4.476;2023-03-02T08:45:43;23.20;;;20.07;;
16393;SDS011;8306;51.128;4.476;2023-03-02T08:48:10;22.07;;;20.03;;
16393;SDS011;8306;51.128;4.476;2023-03-02T08:50:36;21.30;;;19.43;;
16393;SDS011;8306;51.128;4.476;2023-03-02T08:53:03;21.70;;;19.23;;
16393;SDS011;8306;51.128;4.476;2023-03-02T08:55:29;22.57;;;20.57;;
16393;SDS011;8306;51.128;4.476;2023-03-02T08:57:56;22.50;;;20.40;;
16393;SDS011;8306;51.128;4.476;2023-03-02T09:00:22;21.20;;;19.30;;
16393;SDS011;8306;51.128;4.476;2023-03-02T09:02:49;20.73;;;19.07;;
16393;SDS011;8306;51.128;4.476;2023-03-02T09:05:15;21.43;;;19.40;;
16393;SDS011;8306;51.128;4.476;2023-03-02T09:07:41;21.00;;;19.27;;
16393;SDS011;8306;51.128;4.476;2023-03-02T09:10:08;20.77;;;18.97;;
16393;SDS011;8306;51.128;4.476;2023-03-02T09:12:35;20.57;;;18.87;;
16393;SDS011;8306;51.128;4.476;2023-03-02T09:15:01;20.97;;;19.00;;
16393;SDS011;8306;51.128;4.476;2023-03-02T09:17:28;18.90;;;17.20;;
16393;SDS011;8306;51.128;4.476;2023-03-02T09:19:54;20.43;;;18.57;;
16393;SDS011;8306;51.128;4.476;2023-03-02T09:22:20;19.93;;;18.13;;
16393;SDS011;8306;51.128;4.476;2023-03-02T09:24:47;18.57;;;17.07;;
16393;SDS011;8306;51.128;4.476;2023-03-02T09:27:13;17.80;;;16.20;;
16393;SDS011;8306;51.128;4.476;2023-03-02T09:29:40;19.23;;;17.53;;
16393;SDS011;8306;51.128;4.476;2023-03-02T09:32:06;19.97;;;18.27;;
16393;SDS011;8306;51.128;4.476;2023-03-02T09:34:33;19.63;;;18.03;;
16393;SDS011;8306;51.128;4.476;2023-03-02T09:36:59;19.23;;;17.63;;
16393;SDS011;8306;51.128;4.476;2023-03-02T09:39:26;17.83;;;16.43;;
16393;SDS011;8306;51.128;4.476;2023-03-02T09:44:37;17.43;;;15.87;;
16393;SDS011;8306;51.128;4.476;2023-03-02T09:47:04;17.90;;;16.50;;
16393;SDS011;8306;51.128;4.476;2023-03-02T09:52:09;17.23;;;15.73;;
16393;SDS011;8306;51.128;4.476;2023-03-02T09:54:34;18.23;;;16.83;;
16393;SDS011;8306;51.128;4.476;2023-03-02T09:57:01;18.50;;;16.93;;
16393;SDS011;8306;51.128;4.476;2023-03-02T09:59:32;17.33;;;15.93;;
16393;SDS011;8306;51.128;4.476;2023-03-02T10:02:05;17.27;;;15.97;;
16393;SDS011;8306;51.128;4.476;2023-03-02T10:04:52;17.27;;;15.87;;
16393;SDS011;8306;51.128;4.476;2023-03-02T10:07:09;17.37;;;15.87;;
16393;SDS011;8306;51.128;4.476;2023-03-02T10:09:28;16.50;;;15.20;;
16393;SDS011;8306;51.128;4.476;2023-03-02T10:14:28;16.80;;;15.50;;
16393;SDS011;8306;51.128;4.476;2023-03-02T10:16:59;15.97;;;14.77;;
16393;SDS011;8306;51.128;4.476;2023-03-02T10:19:31;15.47;;;14.13;;
16393;SDS011;8306;51.128;4.476;2023-03-02T10:24:35;15.43;;;14.23;;
16393;SDS011;8306;51.128;4.476;2023-03-02T10:27:47;16.90;;;15.50;;
16393;SDS011;8306;51.128;4.476;2023-03-02T10:32:29;16.73;;;15.33;;
16393;SDS011;8306;51.128;4.476;2023-03-02T10:34:55;15.90;;;14.60;;
16393;SDS011;8306;51.128;4.476;2023-03-02T10:37:23;15.20;;;14.10;;
16393;SDS011;8306;51.128;4.476;2023-03-02T10:39:48;16.60;;;15.30;;
16393;SDS011;8306;51.128;4.476;2023-03-02T10:42:25;15.23;;;14.03;;
16393;SDS011;8306;51.128;4.476;2023-03-02T10:44:42;14.60;;;13.50;;
16393;SDS011;8306;51.128;4.476;2023-03-02T10:47:17;16.77;;;14.80;;
16393;SDS011;8306;51.128;4.476;2023-03-02T10:49:35;16.47;;;15.07;;
16393;SDS011;8306;51.128;4.476;2023-03-02T10:52:04;16.50;;;15.20;;
16393;SDS011;8306;51.128;4.476;2023-03-02T10:54:30;16.13;;;14.83;;
16393;SDS011;8306;51.128;4.476;2023-03-02T10:57:00;16.87;;;15.50;;
16393;SDS011;8306;51.128;4.476;2023-03-02T11:04:42;16.13;;;14.83;;
16393;SDS011;8306;51.128;4.476;2023-03-02T11:07:10;16.07;;;14.70;;
16393;SDS011;8306;51.128;4.476;2023-03-02T11:09:35;16.17;;;14.93;;
16393;SDS011;8306;51.128;4.476;2023-03-02T11:12:02;16.87;;;15.47;;
16393;SDS011;8306;51.128;4.476;2023-03-02T11:14:28;16.17;;;14.77;;
16393;SDS011;8306;51.128;4.476;2023-03-02T11:16:55;15.87;;;14.57;;
16393;SDS011;8306;51.128;4.476;2023-03-02T11:19:28;15.47;;;14.27;;
16393;SDS011;8306;51.128;4.476;2023-03-02T11:22:52;16.20;;;14.90;;
16393;SDS011;8306;51.128;4.476;2023-03-02T11:24:46;15.40;;;14.10;;
16393;SDS011;8306;51.128;4.476;2023-03-02T11:27:15;14.73;;;13.60;;
16393;SDS011;8306;51.128;4.476;2023-03-02T11:32:21;15.77;;;14.37;;
16393;SDS011;8306;51.128;4.476;2023-03-02T11:34:46;14.63;;;13.43;;
16393;SDS011;8306;51.128;4.476;2023-03-02T11:42:21;15.60;;;14.10;;
16393;SDS011;8306;51.128;4.476;2023-03-02T11:44:49;15.97;;;14.60;;
16393;SDS011;8306;51.128;4.476;2023-03-02T11:47:13;15.47;;;14.17;;
16393;SDS011;8306;51.128;4.476;2023-03-02T11:49:41;14.47;;;13.27;;
16393;SDS011;8306;51.128;4.476;2023-03-02T11:52:07;14.83;;;13.63;;
16393;SDS011;8306;51.128;4.476;2023-03-02T11:54:40;15.13;;;13.83;;
16393;SDS011;8306;51.128;4.476;2023-03-02T11:57:53;14.67;;;13.47;;
16393;SDS011;8306;51.128;4.476;2023-03-02T11:59:45;15.40;;;14.10;;
16393;SDS011;8306;51.128;4.476;2023-03-02T12:02:12;15.90;;;14.57;;
16393;SDS011;8306;51.128;4.476;2023-03-02T12:04:38;14.40;;;13.20;;
16393;SDS011;8306;51.128;4.476;2023-03-02T12:07:21;16.27;;;14.63;;
16393;SDS011;8306;51.128;4.476;2023-03-02T12:09:55;15.57;;;14.30;;
16393;SDS011;8306;51.128;4.476;2023-03-02T12:14:51;14.87;;;13.57;;
16393;SDS011;8306;51.128;4.476;2023-03-02T12:19:54;14.73;;;13.47;;
16393;SDS011;8306;51.128;4.476;2023-03-02T12:22:34;15.53;;;14.23;;
16393;SDS011;8306;51.128;4.476;2023-03-02T12:25:06;15.50;;;13.97;;
16393;SDS011;8306;51.128;4.476;2023-03-02T12:27:37;15.13;;;13.73;;
16393;SDS011;8306;51.128;4.476;2023-03-02T12:32:34;14.10;;;13.00;;
16393;SDS011;8306;51.128;4.476;2023-03-02T12:50:52;14.03;;;12.90;;
16393;SDS011;8306;51.128;4.476;2023-03-02T12:53:18;12.73;;;11.50;;
16393;SDS011;8306;51.128;4.476;2023-03-02T12:55:44;12.67;;;11.57;;
16393;SDS011;8306;51.128;4.476;2023-03-02T12:58:17;12.87;;;11.83;;
16393;SDS011;8306;51.128;4.476;2023-03-02T13:00:39;13.30;;;12.10;;
16393;SDS011;8306;51.128;4.476;2023-03-02T13:03:11;12.47;;;11.23;;
16393;SDS011;8306;51.128;4.476;2023-03-02T13:05:33;12.00;;;11.10;;
16393;SDS011;8306;51.128;4.476;2023-03-02T13:07:59;12.33;;;11.30;;
16393;SDS011;8306;51.128;4.476;2023-03-02T13:13:14;12.47;;;11.30;;
16393;SDS011;8306;51.128;4.476;2023-03-02T13:15:52;12.50;;;11.20;;
16393;SDS011;8306;51.128;4.476;2023-03-02T13:18:24;12.67;;;11.57;;
16393;SDS011;8306;51.128;4.476;2023-03-02T13:20:50;11.93;;;10.90;;
16393;SDS011;8306;51.128;4.476;2023-03-02T13:23:16;11.83;;;10.73;;
16393;SDS011;8306;51.128;4.476;2023-03-02T13:25:50;11.80;;;10.57;;
16393;SDS011;8306;51.128;4.476;2023-03-02T13:28:31;12.33;;;11.23;;
16393;SDS011;8306;51.128;4.476;2023-03-02T13:31:06;12.80;;;11.03;;
16393;SDS011;8306;51.128;4.476;2023-03-02T13:33:29;11.73;;;10.73;;
16393;SDS011;8306;51.128;4.476;2023-03-02T13:35:55;11.60;;;10.47;;
16393;SDS011;8306;51.128;4.476;2023-03-02T13:38:33;11.60;;;10.47;;
16393;SDS011;8306;51.128;4.476;2023-03-02T13:40:49;12.00;;;10.90;;
16393;SDS011;8306;51.128;4.476;2023-03-02T13:46:04;10.57;;;9.67;;
16393;SDS011;8306;51.128;4.476;2023-03-02T13:48:29;11.37;;;10.27;;
16393;SDS011;8306;51.128;4.476;2023-03-02T13:51:17;12.00;;;11.00;;
16393;SDS011;8306;51.128;4.476;2023-03-02T13:53:23;11.50;;;10.60;;
16393;SDS011;8306;51.128;4.476;2023-03-02T13:55:49;10.83;;;9.93;;
16393;SDS011;8306;51.128;4.476;2023-03-02T13:58:16;11.63;;;10.63;;
16393;SDS011;8306;51.128;4.476;2023-03-02T14:00:42;12.17;;;11.17;;
16393;SDS011;8306;51.128;4.476;2023-03-02T14:03:27;11.37;;;10.37;;
16393;SDS011;8306;51.128;4.476;2023-03-02T14:05:53;11.33;;;10.23;;
16393;SDS011;8306;51.128;4.476;2023-03-02T14:08:19;12.17;;;11.07;;
16393;SDS011;8306;51.128;4.476;2023-03-02T14:10:45;12.50;;;11.50;;
16393;SDS011;8306;51.128;4.476;2023-03-02T14:13:15;12.33;;;11.17;;
16393;SDS011;8306;51.128;4.476;2023-03-02T14:15:39;11.60;;;10.07;;
16393;SDS011;8306;51.128;4.476;2023-03-02T14:18:10;12.37;;;11.00;;
16393;SDS011;8306;51.128;4.476;2023-03-02T14:20:34;12.23;;;11.23;;
16393;SDS011;8306;51.128;4.476;2023-03-02T14:23:00;12.60;;;11.47;;
16393;SDS011;8306;51.128;4.476;2023-03-02T14:25:27;11.90;;;10.90;;
16393;SDS011;8306;51.128;4.476;2023-03-02T14:27:53;12.17;;;11.07;;
16393;SDS011;8306;51.128;4.476;2023-03-02T14:30:20;13.17;;;12.07;;
16393;SDS011;8306;51.128;4.476;2023-03-02T14:32:46;11.60;;;10.60;;
16393;SDS011;8306;51.128;4.476;2023-03-02T14:35:13;11.97;;;10.97;;
16393;SDS011;8306;51.128;4.476;2023-03-02T14:37:40;11.37;;;10.40;;
16393;SDS011;8306;51.128;4.476;2023-03-02T14:40:30;12.33;;;10.57;;
16393;SDS011;8306;51.128;4.476;2023-03-02T14:42:38;11.30;;;10.43;;
16393;SDS011;8306;51.128;4.476;2023-03-02T14:45:05;12.00;;;11.00;;
16393;SDS011;8306;51.128;4.476;2023-03-02T14:47:31;12.83;;;10.67;;
16393;SDS011;8306;51.128;4.476;2023-03-02T14:49:58;11.70;;;10.33;;
16393;SDS011;8306;51.128;4.476;2023-03-02T14:52:31;11.37;;;10.43;;
16393;SDS011;8306;51.128;4.476;2023-03-02T14:54:58;12.10;;;11.00;;
16393;SDS011;8306;51.128;4.476;2023-03-02T14:57:24;12.00;;;10.90;;
16393;SDS011;8306;51.128;4.476;2023-03-02T14:59:52;12.20;;;11.03;;
16393;SDS011;8306;51.128;4.476;2023-03-02T15:02:19;12.63;;;11.37;;
16393;SDS011;8306;51.128;4.476;2023-03-02T15:04:45;14.67;;;11.37;;
16393;SDS011;8306;51.128;4.476;2023-03-02T15:07:12;14.37;;;13.07;;
16393;SDS011;8306;51.128;4.476;2023-03-02T15:09:38;12.90;;;11.70;;
16393;SDS011;8306;51.128;4.476;2023-03-02T15:12:05;13.13;;;11.93;;
16393;SDS011;8306;51.128;4.476;2023-03-02T15:14:31;12.60;;;11.23;;
16393;SDS011;8306;51.128;4.476;2023-03-02T15:16:57;13.50;;;12.20;;
16393;SDS011;8306;51.128;4.476;2023-03-02T15:19:24;13.00;;;11.80;;
16393;SDS011;8306;51.128;4.476;2023-03-02T15:21:50;12.13;;;11.03;;
16393;SDS011;8306;51.128;4.476;2023-03-02T15:24:17;11.97;;;10.90;;
16393;SDS011;8306;51.128;4.476;2023-03-02T15:26:43;13.13;;;11.83;;
16393;SDS011;8306;51.128;4.476;2023-03-02T15:29:10;13.03;;;11.70;;
16393;SDS011;8306;51.128;4.476;2023-03-02T15:31:36;12.93;;;11.60;;
16393;SDS011;8306;51.128;4.476;2023-03-02T15:34:03;13.20;;;11.90;;
16393;SDS011;8306;51.128;4.476;2023-03-02T15:36:29;11.70;;;10.80;;
16393;SDS011;8306;51.128;4.476;2023-03-02T15:38:56;12.30;;;11.17;;
16393;SDS011;8306;51.128;4.476;2023-03-02T15:41:22;12.93;;;11.77;;
16393;SDS011;8306;51.128;4.476;2023-03-02T15:43:49;12.00;;;10.90;;
16393;SDS011;8306;51.128;4.476;2023-03-02T15:46:15;11.97;;;10.77;;